sensor_id;sensor_type;location;lat;lon;timestamp;P1;durP1;ratioP1;P2;durP2;ratioP2
5880;SDS011;2966;52.598;10.928;2022-08-19T00:00:38;20.90;;;16.30;;
5880;SDS011;2966;52.598;10.928;2022-08-19T00:03:05;22.93;;;19.63;;
5880;SDS011;2966;52.598;10.928;2022-08-19T00:05:33;21.57;;;16.00;;
5880;SDS011;2966;52.598;10.928;2022-08-19T00:08:00;20.43;;;16.00;;
5880;SDS011;2966;52.598;10.928;2022-08-19T00:10:27;26.30;;;18.53;;
5880;SDS011;2966;52.598;10.928;2022-08-19T00:12:53;20.40;;;17.40;;
5880;SDS011;2966;52.598;10.928;2022-08-19T00:15:22;20.30;;;15.60;;
5880;SDS011;2966;52.598;10.928;2022-08-19T00:17:49;25.63;;;17.73;;
5880;SDS011;2966;52.598;10.928;2022-08-19T00:20:16;24.27;;;17.67;;
5880;SDS011;2966;52.598;10.928;2022-08-19T00:22:45;21.70;;;18.90;;
5880;SDS011;2966;52.598;10.928;2022-08-19T00:25:13;22.20;;;18.60;;
5880;SDS011;2966;52.598;10.928;2022-08-19T00:27:40;21.40;;;17.73;;
5880;SDS011;2966;52.598;10.928;2022-08-19T00:30:07;27.77;;;18.97;;
5880;SDS011;2966;52.598;10.928;2022-08-19T00:32:36;24.37;;;18.80;;
5880;SDS011;2966;52.598;10.928;2022-08-19T00:35:05;18.60;;;16.57;;
5880;SDS011;2966;52.598;10.928;2022-08-19T00:37:32;19.93;;;17.23;;
5880;SDS011;2966;52.598;10.928;2022-08-19T00:40:00;19.13;;;15.97;;
5880;SDS011;2966;52.598;10.928;2022-08-19T00:42:27;20.27;;;16.47;;
5880;SDS011;2966;52.598;10.928;2022-08-19T00:44:54;20.87;;;16.27;;
5880;SDS011;2966;52.598;10.928;2022-08-19T00:47:21;27.83;;;16.93;;
5880;SDS011;2966;52.598;10.928;2022-08-19T00:49:49;24.73;;;18.23;;
5880;SDS011;2966;52.598;10.928;2022-08-19T00:52:20;25.60;;;18.43;;
5880;SDS011;2966;52.598;10.928;2022-08-19T00:54:50;23.03;;;16.63;;
5880;SDS011;2966;52.598;10.928;2022-08-19T00:57:18;24.53;;;17.90;;
5880;SDS011;2966;52.598;10.928;2022-08-19T00:59:52;22.07;;;17.07;;
5880;SDS011;2966;52.598;10.928;2022-08-19T01:02:21;22.90;;;17.23;;
5880;SDS011;2966;52.598;10.928;2022-08-19T01:04:50;17.20;;;15.47;;
5880;SDS011;2966;52.598;10.928;2022-08-19T01:07:16;20.30;;;15.87;;
5880;SDS011;2966;52.598;10.928;2022-08-19T01:09:43;23.27;;;16.23;;
5880;SDS011;2966;52.598;10.928;2022-08-19T01:12:10;19.43;;;15.70;;
5880;SDS011;2966;52.598;10.928;2022-08-19T01:14:40;24.27;;;16.90;;
5880;SDS011;2966;52.598;10.928;2022-08-19T01:17:07;28.83;;;17.83;;
5880;SDS011;2966;52.598;10.928;2022-08-19T01:19:36;21.47;;;16.20;;
5880;SDS011;2966;52.598;10.928;2022-08-19T01:22:08;21.40;;;17.50;;
5880;SDS011;2966;52.598;10.928;2022-08-19T01:24:39;23.23;;;15.37;;
5880;SDS011;2966;52.598;10.928;2022-08-19T01:27:06;23.27;;;16.80;;
5880;SDS011;2966;52.598;10.928;2022-08-19T01:29:34;23.10;;;19.63;;
5880;SDS011;2966;52.598;10.928;2022-08-19T01:32:04;28.73;;;18.60;;
5880;SDS011;2966;52.598;10.928;2022-08-19T01:34:31;22.93;;;17.20;;
5880;SDS011;2966;52.598;10.928;2022-08-19T01:36:59;19.07;;;16.90;;
5880;SDS011;2966;52.598;10.928;2022-08-19T01:39:27;23.67;;;17.80;;
5880;SDS011;2966;52.598;10.928;2022-08-19T01:41:55;19.33;;;16.30;;
5880;SDS011;2966;52.598;10.928;2022-08-19T01:44:22;23.03;;;17.57;;
5880;SDS011;2966;52.598;10.928;2022-08-19T01:46:50;24.30;;;16.93;;
5880;SDS011;2966;52.598;10.928;2022-08-19T01:49:18;26.17;;;20.07;;
5880;SDS011;2966;52.598;10.928;2022-08-19T01:51:48;21.03;;;17.33;;
5880;SDS011;2966;52.598;10.928;2022-08-19T01:54:16;26.47;;;17.90;;
5880;SDS011;2966;52.598;10.928;2022-08-19T01:56:44;29.10;;;17.67;;
5880;SDS011;2966;52.598;10.928;2022-08-19T01:59:14;24.50;;;15.57;;
5880;SDS011;2966;52.598;10.928;2022-08-19T02:01:43;18.07;;;15.47;;
5880;SDS011;2966;52.598;10.928;2022-08-19T02:04:10;20.47;;;16.30;;
5880;SDS011;2966;52.598;10.928;2022-08-19T02:06:36;18.90;;;16.23;;
5880;SDS011;2966;52.598;10.928;2022-08-19T02:09:04;17.63;;;13.60;;
5880;SDS011;2966;52.598;10.928;2022-08-19T02:11:33;19.93;;;15.90;;
5880;SDS011;2966;52.598;10.928;2022-08-19T02:14:02;23.47;;;14.37;;
5880;SDS011;2966;52.598;10.928;2022-08-19T02:16:32;22.67;;;16.10;;
5880;SDS011;2966;52.598;10.928;2022-08-19T02:19:00;19.23;;;14.80;;
5880;SDS011;2966;52.598;10.928;2022-08-19T02:21:27;22.00;;;15.77;;
5880;SDS011;2966;52.598;10.928;2022-08-19T02:23:55;18.70;;;13.37;;
5880;SDS011;2966;52.598;10.928;2022-08-19T02:26:22;21.83;;;14.90;;
5880;SDS011;2966;52.598;10.928;2022-08-19T02:28:50;18.50;;;13.67;;
5880;SDS011;2966;52.598;10.928;2022-08-19T02:31:17;17.33;;;14.60;;
5880;SDS011;2966;52.598;10.928;2022-08-19T02:33:48;20.53;;;14.97;;
5880;SDS011;2966;52.598;10.928;2022-08-19T02:36:15;16.97;;;15.17;;
5880;SDS011;2966;52.598;10.928;2022-08-19T02:38:43;17.70;;;14.83;;
5880;SDS011;2966;52.598;10.928;2022-08-19T02:41:11;24.47;;;16.07;;
5880;SDS011;2966;52.598;10.928;2022-08-19T02:43:40;22.00;;;16.77;;
5880;SDS011;2966;52.598;10.928;2022-08-19T02:46:11;17.60;;;15.47;;
5880;SDS011;2966;52.598;10.928;2022-08-19T02:48:48;16.40;;;13.87;;
5880;SDS011;2966;52.598;10.928;2022-08-19T02:51:16;22.63;;;15.40;;
5880;SDS011;2966;52.598;10.928;2022-08-19T02:53:48;16.03;;;14.37;;
5880;SDS011;2966;52.598;10.928;2022-08-19T02:56:15;26.50;;;13.90;;
5880;SDS011;2966;52.598;10.928;2022-08-19T02:58:42;17.30;;;15.50;;
5880;SDS011;2966;52.598;10.928;2022-08-19T03:01:10;18.00;;;14.47;;
5880;SDS011;2966;52.598;10.928;2022-08-19T03:03:37;22.43;;;16.70;;
5880;SDS011;2966;52.598;10.928;2022-08-19T03:06:06;19.50;;;15.00;;
5880;SDS011;2966;52.598;10.928;2022-08-19T03:08:35;24.20;;;15.70;;
5880;SDS011;2966;52.598;10.928;2022-08-19T03:11:03;17.53;;;15.53;;
5880;SDS011;2966;52.598;10.928;2022-08-19T03:13:30;21.13;;;14.53;;
5880;SDS011;2966;52.598;10.928;2022-08-19T03:15:57;19.13;;;14.93;;
5880;SDS011;2966;52.598;10.928;2022-08-19T03:18:23;23.23;;;16.00;;
5880;SDS011;2966;52.598;10.928;2022-08-19T03:20:51;21.60;;;16.97;;
5880;SDS011;2966;52.598;10.928;2022-08-19T03:23:21;29.30;;;14.50;;
5880;SDS011;2966;52.598;10.928;2022-08-19T03:25:52;19.47;;;13.53;;
5880;SDS011;2966;52.598;10.928;2022-08-19T03:28:19;19.90;;;16.40;;
5880;SDS011;2966;52.598;10.928;2022-08-19T03:30:56;21.07;;;17.00;;
5880;SDS011;2966;52.598;10.928;2022-08-19T03:33:25;22.37;;;14.33;;
5880;SDS011;2966;52.598;10.928;2022-08-19T03:36:00;20.87;;;14.20;;
5880;SDS011;2966;52.598;10.928;2022-08-19T03:38:31;21.53;;;14.97;;
5880;SDS011;2966;52.598;10.928;2022-08-19T03:41:03;19.30;;;13.83;;
5880;SDS011;2966;52.598;10.928;2022-08-19T03:43:32;16.33;;;14.63;;
5880;SDS011;2966;52.598;10.928;2022-08-19T03:46:00;19.07;;;14.37;;
5880;SDS011;2966;52.598;10.928;2022-08-19T03:48:29;23.33;;;13.40;;
5880;SDS011;2966;52.598;10.928;2022-08-19T03:50:56;16.07;;;13.37;;
5880;SDS011;2966;52.598;10.928;2022-08-19T03:53:24;16.90;;;13.70;;
5880;SDS011;2966;52.598;10.928;2022-08-19T03:55:53;19.00;;;14.63;;
5880;SDS011;2966;52.598;10.928;2022-08-19T03:58:20;20.53;;;14.03;;
5880;SDS011;2966;52.598;10.928;2022-08-19T04:00:47;15.43;;;12.30;;
5880;SDS011;2966;52.598;10.928;2022-08-19T04:03:13;18.73;;;13.67;;
5880;SDS011;2966;52.598;10.928;2022-08-19T04:05:40;21.13;;;14.80;;
5880;SDS011;2966;52.598;10.928;2022-08-19T04:08:07;17.50;;;13.50;;
5880;SDS011;2966;52.598;10.928;2022-08-19T04:10:35;16.90;;;13.57;;
5880;SDS011;2966;52.598;10.928;2022-08-19T04:13:03;17.17;;;13.70;;
5880;SDS011;2966;52.598;10.928;2022-08-19T04:15:32;14.83;;;12.13;;
5880;SDS011;2966;52.598;10.928;2022-08-19T04:18:04;17.40;;;14.47;;
5880;SDS011;2966;52.598;10.928;2022-08-19T04:20:32;17.17;;;14.20;;
5880;SDS011;2966;52.598;10.928;2022-08-19T04:23:03;19.57;;;13.77;;
5880;SDS011;2966;52.598;10.928;2022-08-19T04:25:34;15.57;;;13.90;;
5880;SDS011;2966;52.598;10.928;2022-08-19T04:28:04;16.60;;;13.73;;
5880;SDS011;2966;52.598;10.928;2022-08-19T04:30:31;19.10;;;13.33;;
5880;SDS011;2966;52.598;10.928;2022-08-19T04:33:03;17.50;;;13.30;;
5880;SDS011;2966;52.598;10.928;2022-08-19T04:35:34;17.03;;;12.70;;
5880;SDS011;2966;52.598;10.928;2022-08-19T04:38:01;16.00;;;12.67;;
5880;SDS011;2966;52.598;10.928;2022-08-19T04:40:28;13.13;;;11.73;;
5880;SDS011;2966;52.598;10.928;2022-08-19T04:43:13;17.67;;;12.23;;
5880;SDS011;2966;52.598;10.928;2022-08-19T04:45:40;12.13;;;10.90;;
5880;SDS011;2966;52.598;10.928;2022-08-19T04:48:08;12.07;;;10.80;;
5880;SDS011;2966;52.598;10.928;2022-08-19T04:50:35;14.37;;;12.23;;
5880;SDS011;2966;52.598;10.928;2022-08-19T04:53:02;14.40;;;11.80;;
5880;SDS011;2966;52.598;10.928;2022-08-19T04:55:30;19.20;;;12.87;;
5880;SDS011;2966;52.598;10.928;2022-08-19T04:57:56;14.90;;;12.27;;
5880;SDS011;2966;52.598;10.928;2022-08-19T05:00:24;15.03;;;12.07;;
5880;SDS011;2966;52.598;10.928;2022-08-19T05:02:51;16.40;;;12.77;;
5880;SDS011;2966;52.598;10.928;2022-08-19T05:05:17;21.60;;;12.97;;
5880;SDS011;2966;52.598;10.928;2022-08-19T05:07:44;18.40;;;11.47;;
5880;SDS011;2966;52.598;10.928;2022-08-19T05:10:11;18.20;;;15.60;;
5880;SDS011;2966;52.598;10.928;2022-08-19T05:12:38;15.20;;;12.43;;
5880;SDS011;2966;52.598;10.928;2022-08-19T05:15:07;16.47;;;13.20;;
5880;SDS011;2966;52.598;10.928;2022-08-19T05:17:36;16.17;;;12.03;;
5880;SDS011;2966;52.598;10.928;2022-08-19T05:20:03;17.57;;;14.43;;
5880;SDS011;2966;52.598;10.928;2022-08-19T05:22:48;22.37;;;13.60;;
5880;SDS011;2966;52.598;10.928;2022-08-19T05:25:16;15.67;;;12.33;;
5880;SDS011;2966;52.598;10.928;2022-08-19T05:27:44;18.03;;;13.20;;
5880;SDS011;2966;52.598;10.928;2022-08-19T05:30:11;18.17;;;14.27;;
5880;SDS011;2966;52.598;10.928;2022-08-19T05:32:39;18.73;;;14.07;;
5880;SDS011;2966;52.598;10.928;2022-08-19T05:35:07;18.23;;;13.70;;
5880;SDS011;2966;52.598;10.928;2022-08-19T05:37:34;19.30;;;13.83;;
5880;SDS011;2966;52.598;10.928;2022-08-19T05:40:01;19.43;;;13.70;;
5880;SDS011;2966;52.598;10.928;2022-08-19T05:42:28;14.87;;;11.23;;
5880;SDS011;2966;52.598;10.928;2022-08-19T05:44:55;19.00;;;12.53;;
5880;SDS011;2966;52.598;10.928;2022-08-19T05:47:22;19.13;;;13.90;;
5880;SDS011;2966;52.598;10.928;2022-08-19T05:49:50;17.90;;;14.23;;
5880;SDS011;2966;52.598;10.928;2022-08-19T05:52:16;18.33;;;13.77;;
5880;SDS011;2966;52.598;10.928;2022-08-19T05:54:45;18.67;;;14.13;;
5880;SDS011;2966;52.598;10.928;2022-08-19T05:57:13;15.97;;;14.03;;
5880;SDS011;2966;52.598;10.928;2022-08-19T05:59:40;17.57;;;14.03;;
5880;SDS011;2966;52.598;10.928;2022-08-19T06:02:06;16.43;;;13.20;;
5880;SDS011;2966;52.598;10.928;2022-08-19T06:04:33;20.50;;;13.17;;
5880;SDS011;2966;52.598;10.928;2022-08-19T06:07:01;16.00;;;13.60;;
5880;SDS011;2966;52.598;10.928;2022-08-19T06:09:29;16.90;;;12.67;;
5880;SDS011;2966;52.598;10.928;2022-08-19T06:11:57;19.83;;;12.70;;
5880;SDS011;2966;52.598;10.928;2022-08-19T06:14:25;18.90;;;13.80;;
5880;SDS011;2966;52.598;10.928;2022-08-19T06:16:53;15.17;;;12.03;;
5880;SDS011;2966;52.598;10.928;2022-08-19T06:19:21;18.30;;;14.20;;
5880;SDS011;2966;52.598;10.928;2022-08-19T06:21:50;20.10;;;13.43;;
5880;SDS011;2966;52.598;10.928;2022-08-19T06:24:20;19.43;;;15.00;;
5880;SDS011;2966;52.598;10.928;2022-08-19T06:26:49;19.93;;;14.27;;
5880;SDS011;2966;52.598;10.928;2022-08-19T06:29:18;25.50;;;15.63;;
5880;SDS011;2966;52.598;10.928;2022-08-19T06:31:47;18.07;;;12.77;;
5880;SDS011;2966;52.598;10.928;2022-08-19T06:34:15;15.00;;;12.30;;
5880;SDS011;2966;52.598;10.928;2022-08-19T06:36:43;17.27;;;14.57;;
5880;SDS011;2966;52.598;10.928;2022-08-19T06:39:13;17.33;;;14.13;;
5880;SDS011;2966;52.598;10.928;2022-08-19T06:41:44;23.17;;;15.97;;
5880;SDS011;2966;52.598;10.928;2022-08-19T06:44:14;17.10;;;14.87;;
5880;SDS011;2966;52.598;10.928;2022-08-19T06:46:41;22.33;;;15.60;;
5880;SDS011;2966;52.598;10.928;2022-08-19T06:49:08;22.03;;;15.33;;
5880;SDS011;2966;52.598;10.928;2022-08-19T06:51:38;28.10;;;16.47;;
5880;SDS011;2966;52.598;10.928;2022-08-19T06:54:06;26.57;;;15.97;;
5880;SDS011;2966;52.598;10.928;2022-08-19T06:56:32;23.13;;;15.77;;
5880;SDS011;2966;52.598;10.928;2022-08-19T06:59:01;22.03;;;15.37;;
5880;SDS011;2966;52.598;10.928;2022-08-19T07:01:29;25.87;;;16.70;;
5880;SDS011;2966;52.598;10.928;2022-08-19T07:03:55;19.30;;;15.00;;
5880;SDS011;2966;52.598;10.928;2022-08-19T07:06:22;23.87;;;15.40;;
5880;SDS011;2966;52.598;10.928;2022-08-19T07:08:49;25.20;;;16.33;;
5880;SDS011;2966;52.598;10.928;2022-08-19T07:11:16;22.60;;;15.03;;
5880;SDS011;2966;52.598;10.928;2022-08-19T07:13:44;25.53;;;16.23;;
5880;SDS011;2966;52.598;10.928;2022-08-19T07:16:13;22.93;;;15.13;;
5880;SDS011;2966;52.598;10.928;2022-08-19T07:18:44;21.40;;;14.30;;
5880;SDS011;2966;52.598;10.928;2022-08-19T07:21:12;24.53;;;15.60;;
5880;SDS011;2966;52.598;10.928;2022-08-19T07:23:41;20.70;;;15.40;;
5880;SDS011;2966;52.598;10.928;2022-08-19T07:26:08;26.10;;;15.53;;
5880;SDS011;2966;52.598;10.928;2022-08-19T07:28:39;22.57;;;15.50;;
5880;SDS011;2966;52.598;10.928;2022-08-19T07:31:09;20.63;;;14.93;;
5880;SDS011;2966;52.598;10.928;2022-08-19T07:33:38;25.00;;;15.87;;
5880;SDS011;2966;52.598;10.928;2022-08-19T07:36:08;27.20;;;15.47;;
5880;SDS011;2966;52.598;10.928;2022-08-19T07:38:38;21.63;;;15.37;;
5880;SDS011;2966;52.598;10.928;2022-08-19T07:41:05;20.13;;;14.00;;
5880;SDS011;2966;52.598;10.928;2022-08-19T07:43:35;21.30;;;14.90;;
5880;SDS011;2966;52.598;10.928;2022-08-19T07:46:01;22.57;;;14.60;;
5880;SDS011;2966;52.598;10.928;2022-08-19T07:48:28;24.87;;;15.97;;
5880;SDS011;2966;52.598;10.928;2022-08-19T07:50:58;23.20;;;15.03;;
5880;SDS011;2966;52.598;10.928;2022-08-19T07:53:27;22.43;;;14.80;;
5880;SDS011;2966;52.598;10.928;2022-08-19T07:55:54;18.90;;;13.20;;
5880;SDS011;2966;52.598;10.928;2022-08-19T07:58:23;25.27;;;14.60;;
5880;SDS011;2966;52.598;10.928;2022-08-19T08:00:50;18.30;;;14.53;;
5880;SDS011;2966;52.598;10.928;2022-08-19T08:03:19;23.80;;;15.07;;
5880;SDS011;2966;52.598;10.928;2022-08-19T08:06:10;23.27;;;15.50;;
5880;SDS011;2966;52.598;10.928;2022-08-19T08:08:56;20.83;;;14.80;;
5880;SDS011;2966;52.598;10.928;2022-08-19T08:11:41;26.73;;;15.37;;
5880;SDS011;2966;52.598;10.928;2022-08-19T08:14:14;28.03;;;15.03;;
5880;SDS011;2966;52.598;10.928;2022-08-19T08:16:42;22.57;;;14.47;;
5880;SDS011;2966;52.598;10.928;2022-08-19T08:19:10;23.00;;;16.27;;
5880;SDS011;2966;52.598;10.928;2022-08-19T08:21:41;21.60;;;14.80;;
5880;SDS011;2966;52.598;10.928;2022-08-19T08:24:08;23.93;;;15.83;;
5880;SDS011;2966;52.598;10.928;2022-08-19T08:26:38;21.17;;;16.73;;
5880;SDS011;2966;52.598;10.928;2022-08-19T08:29:05;24.53;;;15.27;;
5880;SDS011;2966;52.598;10.928;2022-08-19T08:31:36;27.30;;;17.83;;
5880;SDS011;2966;52.598;10.928;2022-08-19T08:34:03;24.87;;;17.60;;
5880;SDS011;2966;52.598;10.928;2022-08-19T08:36:30;26.17;;;16.60;;
5880;SDS011;2966;52.598;10.928;2022-08-19T08:38:59;23.27;;;15.80;;
5880;SDS011;2966;52.598;10.928;2022-08-19T08:41:28;28.07;;;16.93;;
5880;SDS011;2966;52.598;10.928;2022-08-19T08:44:01;35.40;;;18.50;;
5880;SDS011;2966;52.598;10.928;2022-08-19T08:46:30;29.93;;;17.17;;
5880;SDS011;2966;52.598;10.928;2022-08-19T08:49:05;29.47;;;17.07;;
5880;SDS011;2966;52.598;10.928;2022-08-19T08:51:42;33.27;;;17.20;;
5880;SDS011;2966;52.598;10.928;2022-08-19T08:54:14;31.03;;;20.10;;
5880;SDS011;2966;52.598;10.928;2022-08-19T08:56:45;31.53;;;18.27;;
5880;SDS011;2966;52.598;10.928;2022-08-19T08:59:16;32.90;;;18.23;;
5880;SDS011;2966;52.598;10.928;2022-08-19T09:01:46;24.60;;;16.73;;
5880;SDS011;2966;52.598;10.928;2022-08-19T09:04:13;25.50;;;19.40;;
5880;SDS011;2966;52.598;10.928;2022-08-19T09:06:44;25.53;;;16.87;;
5880;SDS011;2966;52.598;10.928;2022-08-19T09:09:22;31.00;;;17.93;;
5880;SDS011;2966;52.598;10.928;2022-08-19T09:11:59;27.70;;;17.50;;
5880;SDS011;2966;52.598;10.928;2022-08-19T09:14:36;31.90;;;16.73;;
5880;SDS011;2966;52.598;10.928;2022-08-19T09:17:10;28.10;;;17.90;;
5880;SDS011;2966;52.598;10.928;2022-08-19T09:19:48;27.80;;;18.70;;
5880;SDS011;2966;52.598;10.928;2022-08-19T09:22:16;26.00;;;17.07;;
5880;SDS011;2966;52.598;10.928;2022-08-19T09:24:47;20.97;;;15.30;;
5880;SDS011;2966;52.598;10.928;2022-08-19T09:27:15;25.30;;;16.27;;
5880;SDS011;2966;52.598;10.928;2022-08-19T09:29:42;25.70;;;18.20;;
5880;SDS011;2966;52.598;10.928;2022-08-19T09:32:08;24.53;;;15.73;;
5880;SDS011;2966;52.598;10.928;2022-08-19T09:34:35;22.40;;;19.17;;
5880;SDS011;2966;52.598;10.928;2022-08-19T09:37:02;27.63;;;17.60;;
5880;SDS011;2966;52.598;10.928;2022-08-19T09:39:30;27.43;;;17.30;;
5880;SDS011;2966;52.598;10.928;2022-08-19T09:41:58;21.40;;;17.60;;
5880;SDS011;2966;52.598;10.928;2022-08-19T09:44:25;26.13;;;17.10;;
5880;SDS011;2966;52.598;10.928;2022-08-19T09:46:51;28.60;;;17.30;;
5880;SDS011;2966;52.598;10.928;2022-08-19T09:49:18;23.37;;;16.03;;
5880;SDS011;2966;52.598;10.928;2022-08-19T09:51:48;24.80;;;16.83;;
5880;SDS011;2966;52.598;10.928;2022-08-19T09:54:16;25.20;;;17.57;;
5880;SDS011;2966;52.598;10.928;2022-08-19T09:56:43;21.33;;;16.27;;
5880;SDS011;2966;52.598;10.928;2022-08-19T09:59:11;24.13;;;15.40;;
5880;SDS011;2966;52.598;10.928;2022-08-19T10:01:38;23.80;;;16.10;;
5880;SDS011;2966;52.598;10.928;2022-08-19T10:04:05;22.00;;;15.70;;
5880;SDS011;2966;52.598;10.928;2022-08-19T10:06:33;23.57;;;16.90;;
5880;SDS011;2966;52.598;10.928;2022-08-19T10:09:02;20.67;;;15.10;;
5880;SDS011;2966;52.598;10.928;2022-08-19T10:11:31;19.83;;;14.43;;
5880;SDS011;2966;52.598;10.928;2022-08-19T10:13:59;25.30;;;15.50;;
5880;SDS011;2966;52.598;10.928;2022-08-19T10:16:28;24.30;;;13.97;;
5880;SDS011;2966;52.598;10.928;2022-08-19T10:18:54;17.60;;;15.23;;
5880;SDS011;2966;52.598;10.928;2022-08-19T10:21:22;20.13;;;14.67;;
5880;SDS011;2966;52.598;10.928;2022-08-19T10:23:51;20.80;;;16.20;;
5880;SDS011;2966;52.598;10.928;2022-08-19T10:26:23;19.53;;;14.50;;
5880;SDS011;2966;52.598;10.928;2022-08-19T10:28:54;22.60;;;15.40;;
5880;SDS011;2966;52.598;10.928;2022-08-19T10:31:22;17.30;;;13.27;;
5880;SDS011;2966;52.598;10.928;2022-08-19T10:33:52;21.13;;;15.43;;
5880;SDS011;2966;52.598;10.928;2022-08-19T10:36:23;23.23;;;15.23;;
5880;SDS011;2966;52.598;10.928;2022-08-19T10:38:52;22.67;;;15.60;;
5880;SDS011;2966;52.598;10.928;2022-08-19T10:41:22;21.27;;;14.90;;
5880;SDS011;2966;52.598;10.928;2022-08-19T10:43:50;21.70;;;15.50;;
5880;SDS011;2966;52.598;10.928;2022-08-19T10:46:17;18.00;;;14.10;;
5880;SDS011;2966;52.598;10.928;2022-08-19T10:48:44;23.20;;;17.70;;
5880;SDS011;2966;52.598;10.928;2022-08-19T10:51:12;20.40;;;14.90;;
5880;SDS011;2966;52.598;10.928;2022-08-19T10:53:57;21.77;;;15.40;;
5880;SDS011;2966;52.598;10.928;2022-08-19T10:56:24;17.27;;;12.80;;
5880;SDS011;2966;52.598;10.928;2022-08-19T10:59:09;16.23;;;12.70;;
5880;SDS011;2966;52.598;10.928;2022-08-19T11:01:37;18.47;;;13.80;;
5880;SDS011;2966;52.598;10.928;2022-08-19T11:04:04;16.60;;;12.23;;
5880;SDS011;2966;52.598;10.928;2022-08-19T11:06:37;15.70;;;12.50;;
5880;SDS011;2966;52.598;10.928;2022-08-19T11:09:08;19.00;;;13.57;;
5880;SDS011;2966;52.598;10.928;2022-08-19T11:11:36;20.13;;;12.83;;
5880;SDS011;2966;52.598;10.928;2022-08-19T11:14:05;13.33;;;11.00;;
5880;SDS011;2966;52.598;10.928;2022-08-19T11:16:32;16.07;;;13.50;;
5880;SDS011;2966;52.598;10.928;2022-08-19T11:18:59;14.63;;;12.27;;
5880;SDS011;2966;52.598;10.928;2022-08-19T11:21:27;14.20;;;12.10;;
5880;SDS011;2966;52.598;10.928;2022-08-19T11:23:59;19.03;;;12.63;;
5880;SDS011;2966;52.598;10.928;2022-08-19T11:26:28;13.40;;;12.10;;
5880;SDS011;2966;52.598;10.928;2022-08-19T11:28:56;16.17;;;12.70;;
5880;SDS011;2966;52.598;10.928;2022-08-19T11:31:25;13.80;;;12.40;;
5880;SDS011;2966;52.598;10.928;2022-08-19T11:33:52;16.70;;;12.87;;
5880;SDS011;2966;52.598;10.928;2022-08-19T11:36:20;15.73;;;12.50;;
5880;SDS011;2966;52.598;10.928;2022-08-19T11:38:47;14.77;;;10.87;;
5880;SDS011;2966;52.598;10.928;2022-08-19T11:41:16;13.90;;;12.27;;
5880;SDS011;2966;52.598;10.928;2022-08-19T11:43:44;12.43;;;11.23;;
5880;SDS011;2966;52.598;10.928;2022-08-19T11:46:11;12.73;;;11.17;;
5880;SDS011;2966;52.598;10.928;2022-08-19T11:48:40;12.20;;;10.20;;
5880;SDS011;2966;52.598;10.928;2022-08-19T11:51:09;16.40;;;10.50;;
5880;SDS011;2966;52.598;10.928;2022-08-19T11:53:37;12.83;;;11.17;;
5880;SDS011;2966;52.598;10.928;2022-08-19T11:56:05;12.83;;;10.67;;
5880;SDS011;2966;52.598;10.928;2022-08-19T11:58:34;11.83;;;9.70;;
5880;SDS011;2966;52.598;10.928;2022-08-19T12:01:04;15.27;;;9.60;;
5880;SDS011;2966;52.598;10.928;2022-08-19T12:03:31;13.90;;;10.97;;
5880;SDS011;2966;52.598;10.928;2022-08-19T12:05:58;11.17;;;9.53;;
5880;SDS011;2966;52.598;10.928;2022-08-19T12:08:28;10.50;;;9.43;;
5880;SDS011;2966;52.598;10.928;2022-08-19T12:10:58;11.17;;;9.60;;
5880;SDS011;2966;52.598;10.928;2022-08-19T12:13:26;12.40;;;10.80;;
5880;SDS011;2966;52.598;10.928;2022-08-19T12:15:55;11.47;;;9.77;;
5880;SDS011;2966;52.598;10.928;2022-08-19T12:18:21;10.37;;;9.30;;
5880;SDS011;2966;52.598;10.928;2022-08-19T12:20:50;10.63;;;9.60;;
5880;SDS011;2966;52.598;10.928;2022-08-19T12:23:17;9.43;;;8.43;;
5880;SDS011;2966;52.598;10.928;2022-08-19T12:25:45;12.23;;;10.90;;
5880;SDS011;2966;52.598;10.928;2022-08-19T12:28:16;11.47;;;10.33;;
5880;SDS011;2966;52.598;10.928;2022-08-19T12:30:44;10.57;;;9.57;;
5880;SDS011;2966;52.598;10.928;2022-08-19T12:33:12;11.77;;;10.20;;
5880;SDS011;2966;52.598;10.928;2022-08-19T12:35:39;11.63;;;10.43;;
5880;SDS011;2966;52.598;10.928;2022-08-19T12:38:07;10.20;;;8.63;;
5880;SDS011;2966;52.598;10.928;2022-08-19T12:40:33;9.63;;;8.73;;
5880;SDS011;2966;52.598;10.928;2022-08-19T12:43:00;9.13;;;8.23;;
5880;SDS011;2966;52.598;10.928;2022-08-19T12:45:27;9.80;;;8.80;;
5880;SDS011;2966;52.598;10.928;2022-08-19T12:47:54;9.40;;;8.50;;
5880;SDS011;2966;52.598;10.928;2022-08-19T12:50:22;9.30;;;8.40;;
5880;SDS011;2966;52.598;10.928;2022-08-19T12:52:54;11.00;;;9.90;;
5880;SDS011;2966;52.598;10.928;2022-08-19T12:55:20;11.80;;;10.40;;
5880;SDS011;2966;52.598;10.928;2022-08-19T12:57:47;14.43;;;8.87;;
5880;SDS011;2966;52.598;10.928;2022-08-19T13:00:17;8.57;;;7.80;;
5880;SDS011;2966;52.598;10.928;2022-08-19T13:02:46;12.03;;;8.80;;
5880;SDS011;2966;52.598;10.928;2022-08-19T13:05:15;9.20;;;8.30;;
5880;SDS011;2966;52.598;10.928;2022-08-19T13:07:46;9.43;;;7.80;;
5880;SDS011;2966;52.598;10.928;2022-08-19T13:10:14;9.87;;;8.97;;
5880;SDS011;2966;52.598;10.928;2022-08-19T13:12:43;13.37;;;9.73;;
5880;SDS011;2966;52.598;10.928;2022-08-19T13:15:11;9.90;;;8.90;;
5880;SDS011;2966;52.598;10.928;2022-08-19T13:17:38;10.97;;;9.90;;
5880;SDS011;2966;52.598;10.928;2022-08-19T13:20:06;14.00;;;11.17;;
5880;SDS011;2966;52.598;10.928;2022-08-19T13:22:35;12.50;;;9.57;;
5880;SDS011;2966;52.598;10.928;2022-08-19T13:25:07;9.93;;;9.00;;
5880;SDS011;2966;52.598;10.928;2022-08-19T13:27:34;10.17;;;8.63;;
5880;SDS011;2966;52.598;10.928;2022-08-19T13:30:02;11.07;;;8.37;;
5880;SDS011;2966;52.598;10.928;2022-08-19T13:32:48;9.30;;;8.40;;
5880;SDS011;2966;52.598;10.928;2022-08-19T13:35:32;12.93;;;9.70;;
5880;SDS011;2966;52.598;10.928;2022-08-19T13:37:59;9.83;;;8.83;;
5880;SDS011;2966;52.598;10.928;2022-08-19T13:40:31;10.73;;;9.00;;
5880;SDS011;2966;52.598;10.928;2022-08-19T13:42:59;8.50;;;7.60;;
5880;SDS011;2966;52.598;10.928;2022-08-19T13:45:28;9.00;;;7.70;;
5880;SDS011;2966;52.598;10.928;2022-08-19T13:47:58;9.70;;;8.63;;
5880;SDS011;2966;52.598;10.928;2022-08-19T13:50:26;9.77;;;8.87;;
5880;SDS011;2966;52.598;10.928;2022-08-19T13:52:56;11.30;;;10.10;;
5880;SDS011;2966;52.598;10.928;2022-08-19T13:55:23;12.30;;;10.63;;
5880;SDS011;2966;52.598;10.928;2022-08-19T13:57:52;11.83;;;8.70;;
5880;SDS011;2966;52.598;10.928;2022-08-19T14:00:19;14.07;;;9.67;;
5880;SDS011;2966;52.598;10.928;2022-08-19T14:02:47;10.63;;;9.60;;
5880;SDS011;2966;52.598;10.928;2022-08-19T14:05:16;11.90;;;9.90;;
5880;SDS011;2966;52.598;10.928;2022-08-19T14:07:44;10.70;;;9.67;;
5880;SDS011;2966;52.598;10.928;2022-08-19T14:10:11;11.97;;;9.20;;
5880;SDS011;2966;52.598;10.928;2022-08-19T14:12:39;11.20;;;9.43;;
5880;SDS011;2966;52.598;10.928;2022-08-19T14:15:08;12.73;;;9.33;;
5880;SDS011;2966;52.598;10.928;2022-08-19T14:17:37;11.20;;;10.10;;
5880;SDS011;2966;52.598;10.928;2022-08-19T14:20:05;17.33;;;9.67;;
5880;SDS011;2966;52.598;10.928;2022-08-19T14:22:34;16.00;;;9.90;;
5880;SDS011;2966;52.598;10.928;2022-08-19T14:25:00;11.40;;;9.80;;
5880;SDS011;2966;52.598;10.928;2022-08-19T14:27:27;14.03;;;9.23;;
5880;SDS011;2966;52.598;10.928;2022-08-19T14:29:54;11.00;;;9.90;;
5880;SDS011;2966;52.598;10.928;2022-08-19T14:32:22;11.53;;;9.70;;
5880;SDS011;2966;52.598;10.928;2022-08-19T14:34:51;11.53;;;9.57;;
5880;SDS011;2966;52.598;10.928;2022-08-19T14:37:21;10.13;;;9.13;;
5880;SDS011;2966;52.598;10.928;2022-08-19T14:39:48;12.03;;;10.73;;
5880;SDS011;2966;52.598;10.928;2022-08-19T14:42:14;10.80;;;9.57;;
5880;SDS011;2966;52.598;10.928;2022-08-19T14:44:41;10.77;;;9.67;;
5880;SDS011;2966;52.598;10.928;2022-08-19T14:47:09;10.17;;;9.20;;